createdAt,value
2018-02-16T00:02:08.977Z,28.63
2018-02-16T00:04:36.432Z,26.33
2018-02-16T00:07:03.887Z,25.50
2018-02-16T00:09:31.352Z,26.47
2018-02-16T00:11:58.814Z,23.53
2018-02-16T00:14:26.291Z,24.90
2018-02-16T00:16:54.508Z,27.90
2018-02-16T00:19:21.978Z,24.70
2018-02-16T00:21:49.436Z,22.97
2018-02-16T00:24:16.892Z,33.07
2018-02-16T00:26:44.375Z,24.13
2018-02-16T00:29:11.821Z,31.40
2018-02-16T00:31:39.284Z,26.67
2018-02-16T00:34:06.751Z,24.47
2018-02-16T00:36:34.226Z,22.43
2018-02-16T00:39:01.688Z,27.73
2018-02-16T00:41:29.152Z,31.33
2018-02-16T00:43:56.616Z,23.80
2018-02-16T00:46:24.089Z,25.17
2018-02-16T00:48:51.568Z,24.80
2018-02-16T00:51:19.037Z,25.33
2018-02-16T00:53:46.504Z,29.23
2018-02-16T00:56:13.967Z,35.40
2018-02-16T00:58:42.193Z,31.80
2018-02-16T01:01:09.672Z,31.57
2018-02-16T01:03:37.144Z,28.33
2018-02-16T01:06:04.614Z,26.17
2018-02-16T01:08:32.083Z,29.07
2018-02-16T01:10:59.549Z,29.60
2018-02-16T01:13:27.017Z,27.77
2018-02-16T01:15:54.513Z,26.00
2018-02-16T01:18:21.960Z,27.50
2018-02-16T01:20:50.184Z,26.97
2018-02-16T01:23:17.669Z,28.27
2018-02-16T01:25:45.139Z,26.87
2018-02-16T01:28:12.610Z,26.97
2018-02-16T01:30:40.077Z,26.27
2018-02-16T01:33:07.527Z,28.47
2018-02-16T01:35:34.992Z,29.47
2018-02-16T01:38:02.462Z,29.73
2018-02-16T01:40:29.912Z,28.60
2018-02-16T01:42:57.373Z,36.37
2018-02-16T01:45:24.837Z,29.33
2018-02-16T01:47:52.313Z,28.77
2018-02-16T01:50:19.778Z,30.50
2018-02-16T01:52:48.006Z,31.00
2018-02-16T01:55:15.468Z,29.00
2018-02-16T01:57:42.942Z,31.57
2018-02-16T02:00:10.393Z,30.03
2018-02-16T02:02:37.864Z,30.80
2018-02-16T02:05:05.325Z,31.53
2018-02-16T02:07:32.798Z,31.13
2018-02-16T02:10:00.264Z,31.47
2018-02-16T02:12:28.664Z,33.00
2018-02-16T02:14:56.121Z,28.47
2018-02-16T02:17:23.604Z,28.97
2018-02-16T02:19:51.081Z,27.93
2018-02-16T02:22:19.298Z,31.47
2018-02-16T02:24:46.773Z,39.30
2018-02-16T02:27:14.230Z,30.30
2018-02-16T02:29:41.703Z,27.03
2018-02-16T02:32:09.153Z,27.30
2018-02-16T02:34:36.626Z,35.93
2018-02-16T02:37:04.097Z,28.37
2018-02-16T02:39:31.583Z,28.63
2018-02-16T02:41:59.032Z,28.20
2018-02-16T02:44:26.508Z,25.50
2018-02-16T02:46:53.965Z,28.47
2018-02-16T02:49:21.437Z,35.27
2018-02-16T02:51:49.649Z,28.63
2018-02-16T02:54:17.130Z,26.57
2018-02-16T02:56:44.584Z,27.43
2018-02-16T02:59:12.096Z,26.37
2018-02-16T03:01:39.572Z,27.80
2018-02-16T03:04:07.038Z,24.10
2018-02-16T03:06:34.499Z,23.57
2018-02-16T03:09:01.965Z,23.27
2018-02-16T03:11:29.420Z,29.13
2018-02-16T03:13:56.903Z,27.07
2018-02-16T03:16:24.366Z,30.33
2018-02-16T03:18:51.832Z,23.33
2018-02-16T03:21:19.300Z,24.97
2018-02-16T03:23:46.776Z,24.00
2018-02-16T03:26:14.238Z,23.93
2018-02-16T03:28:42.460Z,22.43
2018-02-16T03:31:10.684Z,25.70
2018-02-16T03:33:38.132Z,25.83
2018-02-16T03:36:05.610Z,23.10
2018-02-16T03:38:33.096Z,21.47
2018-02-16T03:41:00.569Z,22.63
2018-02-16T03:43:28.028Z,22.40
2018-02-16T03:45:55.489Z,22.23
2018-02-16T03:48:22.943Z,23.83
2018-02-16T03:50:50.412Z,24.47
2018-02-16T03:53:17.872Z,23.57
2018-02-16T03:55:45.338Z,24.17
2018-02-16T03:58:12.780Z,24.33
2018-02-16T04:00:40.253Z,22.07
2018-02-16T04:03:07.709Z,23.47
2018-02-16T04:05:35.175Z,22.27
2018-02-16T04:08:02.628Z,22.13
2018-02-16T04:10:30.093Z,23.33
2018-02-16T04:12:57.561Z,25.10
2018-02-16T04:15:25.021Z,22.70
2018-02-16T04:17:52.486Z,23.37
2018-02-16T04:20:19.965Z,23.80
2018-02-16T04:22:47.420Z,24.40
2018-02-16T04:25:15.313Z,29.43
2018-02-16T04:27:43.538Z,29.90
2018-02-16T04:30:11.012Z,36.77
2018-02-16T04:32:38.469Z,36.30
2018-02-16T04:35:06.868Z,26.80
2018-02-16T04:37:35.097Z,37.53
2018-02-16T04:40:02.545Z,31.07
2018-02-16T04:42:30.787Z,30.47
2018-02-16T04:44:58.250Z,30.40
2018-02-16T04:47:25.718Z,26.80
2018-02-16T04:49:53.176Z,28.80
2018-02-16T04:52:20.637Z,25.43
2018-02-16T04:54:48.107Z,28.37
2018-02-16T04:57:15.581Z,25.20
2018-02-16T04:59:43.046Z,28.93
2018-02-16T05:02:10.520Z,27.00
2018-02-16T05:04:38.745Z,26.07
2018-02-16T05:07:06.216Z,24.80
2018-02-16T05:09:33.672Z,23.27
2018-02-16T05:12:01.141Z,24.07
2018-02-16T05:14:28.592Z,26.70
2018-02-16T05:16:56.064Z,37.80
2018-02-16T05:19:23.528Z,31.30
2018-02-16T05:21:50.994Z,32.70
2018-02-16T05:24:18.453Z,30.43
2018-02-16T05:26:45.921Z,30.37
2018-02-16T05:29:13.376Z,31.47
2018-02-16T05:31:40.841Z,28.80
2018-02-16T05:34:08.305Z,31.70
2018-02-16T05:36:35.780Z,30.60
2018-02-16T05:39:03.245Z,28.73
2018-02-16T05:41:30.717Z,29.63
2018-02-16T05:43:58.177Z,27.67
2018-02-16T05:46:25.659Z,26.80
2018-02-16T05:48:53.116Z,26.87
2018-02-16T05:51:20.580Z,27.70
2018-02-16T05:53:48.047Z,26.87
2018-02-16T05:56:16.284Z,28.70
2018-02-16T05:58:43.743Z,31.37
2018-02-16T06:01:11.200Z,31.57
2018-02-16T06:03:38.681Z,30.27
2018-02-16T06:06:06.167Z,29.77
2018-02-16T06:08:33.620Z,27.87
2018-02-16T06:11:01.116Z,28.03
2018-02-16T06:13:29.351Z,25.57
2018-02-16T06:15:56.818Z,25.63
2018-02-16T06:18:24.276Z,23.60
2018-02-16T06:20:51.740Z,25.13
2018-02-16T06:23:19.219Z,23.40
2018-02-16T06:25:46.738Z,23.47
2018-02-16T06:28:14.199Z,23.73
2018-02-16T06:30:41.656Z,23.67
2018-02-16T06:33:09.133Z,23.40
2018-02-16T06:35:36.592Z,24.80
2018-02-16T06:38:04.057Z,23.50
2018-02-16T06:40:31.519Z,23.67
2018-02-16T06:42:59.004Z,22.47
2018-02-16T06:45:26.470Z,21.90
2018-02-16T06:47:53.935Z,21.87
2018-02-16T06:50:21.399Z,23.07
2018-02-16T06:52:48.864Z,21.27
2018-02-16T06:55:16.374Z,23.40
2018-02-16T06:57:43.833Z,21.53
2018-02-16T07:00:11.304Z,22.00
2018-02-16T07:02:38.769Z,21.87
2018-02-16T07:05:06.240Z,20.97
2018-02-16T07:07:33.695Z,21.60
2018-02-16T07:10:01.194Z,21.77
2018-02-16T07:12:28.664Z,22.60
2018-02-16T07:14:56.141Z,22.07
2018-02-16T07:17:23.601Z,20.60
2018-02-16T07:19:51.065Z,20.07
2018-02-16T07:22:18.544Z,19.20
2018-02-16T07:24:46.812Z,19.00
2018-02-16T07:27:14.268Z,19.27
2018-02-16T07:29:41.733Z,18.40
2018-02-16T07:32:09.191Z,17.83
2018-02-16T07:34:36.653Z,18.20
2018-02-16T07:37:04.110Z,18.30
2018-02-16T07:39:31.581Z,18.53
2018-02-16T07:41:59.042Z,19.23
2018-02-16T07:44:26.500Z,17.57
2018-02-16T07:46:53.960Z,17.87
2018-02-16T07:49:21.425Z,17.53
2018-02-16T07:51:48.879Z,19.53
2018-02-16T07:54:16.342Z,21.50
2018-02-16T07:56:43.801Z,18.93
2018-02-16T07:59:11.271Z,21.03
2018-02-16T08:01:38.730Z,22.13
2018-02-16T08:04:06.180Z,27.37
2018-02-16T08:06:33.649Z,26.50
2018-02-16T08:09:01.104Z,23.97
2018-02-16T08:11:28.576Z,23.90
2018-02-16T08:13:56.028Z,26.23
2018-02-16T08:16:23.529Z,21.67
2018-02-16T08:18:51.763Z,21.97
2018-02-16T08:21:19.243Z,21.57
2018-02-16T08:23:46.704Z,22.37
2018-02-16T08:26:14.173Z,20.47
2018-02-16T08:28:41.640Z,21.27
2018-02-16T08:31:09.109Z,20.23
2018-02-16T08:33:36.564Z,20.17
2018-02-16T08:36:04.043Z,22.67
2018-02-16T08:38:31.493Z,20.00
2018-02-16T08:40:58.952Z,19.40
2018-02-16T08:43:26.411Z,21.70
2018-02-16T08:45:53.876Z,23.57
2018-02-16T08:48:21.337Z,23.73
2018-02-16T08:50:48.819Z,23.53
2018-02-16T08:53:17.047Z,23.13
2018-02-16T08:55:44.509Z,24.43
2018-02-16T08:58:11.976Z,23.07
2018-02-16T09:00:39.428Z,24.60
2018-02-16T09:03:06.893Z,23.50
2018-02-16T09:05:34.360Z,24.10
2018-02-16T09:08:01.837Z,22.63
2018-02-16T09:10:29.290Z,24.53
2018-02-16T09:12:56.762Z,23.23
2018-02-16T09:15:24.221Z,23.03
2018-02-16T09:17:51.692Z,22.73
2018-02-16T09:20:19.156Z,22.90
2018-02-16T09:22:46.620Z,23.20
2018-02-16T09:25:14.076Z,21.77
2018-02-16T09:27:41.547Z,21.63
2018-02-16T09:30:09.005Z,23.00
2018-02-16T09:32:36.465Z,23.10
2018-02-16T09:35:03.930Z,22.13
2018-02-16T09:37:31.393Z,21.87
2018-02-16T09:39:58.854Z,22.33
2018-02-16T09:42:26.333Z,20.40
2018-02-16T09:44:53.802Z,22.50
2018-02-16T09:47:21.288Z,21.57
2018-02-16T09:49:49.513Z,22.30
2018-02-16T09:52:16.976Z,22.53
2018-02-16T09:54:44.439Z,23.03
2018-02-16T09:57:11.896Z,23.33
2018-02-16T09:59:39.361Z,22.67
2018-02-16T10:02:06.841Z,22.37
2018-02-16T10:04:34.296Z,21.63
2018-02-16T10:07:01.757Z,19.93
2018-02-16T10:09:29.208Z,20.70
2018-02-16T10:11:56.670Z,18.70
2018-02-16T10:14:24.140Z,17.93
2018-02-16T10:16:51.607Z,19.57
2018-02-16T10:19:19.083Z,17.97
2018-02-16T10:21:46.533Z,18.63
2018-02-16T10:24:14.021Z,18.13
2018-02-16T10:26:42.241Z,17.13
2018-02-16T10:29:09.734Z,17.77
2018-02-16T10:31:37.192Z,15.67
2018-02-16T10:34:04.652Z,15.93
2018-02-16T10:36:32.142Z,14.90
2018-02-16T10:38:59.601Z,13.90
2018-02-16T10:41:27.057Z,11.00
2018-02-16T10:43:54.528Z,10.67
2018-02-16T10:46:21.989Z,10.90
2018-02-16T10:48:49.450Z,11.10
2018-02-16T10:51:16.907Z,10.63
2018-02-16T10:53:44.384Z,9.77
2018-02-16T10:56:11.850Z,11.13
2018-02-16T10:58:39.305Z,8.20
2018-02-16T11:01:12.429Z,8.80
2018-02-16T11:03:39.893Z,7.77
2018-02-16T11:06:12.329Z,7.33
2018-02-16T11:08:45.513Z,6.83
2018-02-16T11:11:12.973Z,7.47
2018-02-16T11:13:40.446Z,7.50
2018-02-16T11:16:07.897Z,7.50
2018-02-16T11:18:35.392Z,7.50
2018-02-16T11:21:03.613Z,8.43
2018-02-16T11:23:31.064Z,8.20
2018-02-16T11:25:58.530Z,8.23
2018-02-16T11:28:25.988Z,8.30
2018-02-16T11:30:53.461Z,8.63
2018-02-16T11:33:20.917Z,8.10
2018-02-16T11:35:48.377Z,7.27
2018-02-16T11:38:15.836Z,7.77
2018-02-16T11:40:43.309Z,7.03
2018-02-16T11:43:10.761Z,6.97
2018-02-16T11:45:38.225Z,7.30
2018-02-16T11:48:05.689Z,8.10
2018-02-16T11:50:33.164Z,7.70
2018-02-16T11:53:00.617Z,8.80
2018-02-16T11:55:28.080Z,8.23
2018-02-16T11:57:55.539Z,7.50
2018-02-16T12:00:23.005Z,7.90
2018-02-16T12:02:50.464Z,7.87
2018-02-16T12:05:17.976Z,7.43
2018-02-16T12:07:45.440Z,6.47
2018-02-16T12:10:12.901Z,6.47
2018-02-16T12:12:40.352Z,6.27
2018-02-16T12:15:08.573Z,6.30
2018-02-16T12:17:36.810Z,6.73
2018-02-16T12:20:04.285Z,8.83
2018-02-16T12:22:31.748Z,7.33
2018-02-16T12:24:59.215Z,7.07
2018-02-16T12:27:26.669Z,6.40
2018-02-16T12:29:54.903Z,7.37
2018-02-16T12:32:22.393Z,5.93
2018-02-16T12:34:49.840Z,6.27
2018-02-16T12:37:17.310Z,5.37
2018-02-16T12:39:44.793Z,7.30
2018-02-16T12:42:12.256Z,6.80
2018-02-16T12:44:39.700Z,5.23
2018-02-16T12:47:07.175Z,6.40
2018-02-16T12:49:34.641Z,5.60
2018-02-16T12:52:02.117Z,5.60
2018-02-16T12:54:29.580Z,5.83
2018-02-16T12:56:57.029Z,5.17
2018-02-16T12:59:24.490Z,6.33
2018-02-16T13:01:51.960Z,6.60
2018-02-16T13:04:19.410Z,5.23
2018-02-16T13:06:46.875Z,6.10
2018-02-16T13:09:14.334Z,4.83
2018-02-16T13:11:41.793Z,5.00
2018-02-16T13:14:09.252Z,4.60
2018-02-16T13:16:36.757Z,5.17
2018-02-16T13:19:05.043Z,6.13
2018-02-16T13:21:32.444Z,6.03
2018-02-16T13:23:59.918Z,5.20
2018-02-16T13:26:27.378Z,5.83
2018-02-16T13:28:54.857Z,5.83
2018-02-16T13:31:22.325Z,5.20
2018-02-16T13:33:49.788Z,5.73
2018-02-16T13:36:17.280Z,5.13
2018-02-16T13:38:45.505Z,5.67
2018-02-16T13:41:12.960Z,5.73
2018-02-16T13:43:40.438Z,6.13
2018-02-16T13:46:07.891Z,6.13
2018-02-16T13:48:35.368Z,6.10
2018-02-16T13:51:02.815Z,5.80
2018-02-16T13:53:30.293Z,5.87
2018-02-16T13:55:57.748Z,5.60
2018-02-16T13:58:25.212Z,6.07
2018-02-16T14:00:52.685Z,5.47
2018-02-16T14:03:20.137Z,6.63
2018-02-16T14:05:47.640Z,6.37
2018-02-16T14:08:15.058Z,7.20
2018-02-16T14:10:42.521Z,6.43
2018-02-16T14:13:09.976Z,6.00
2018-02-16T14:15:37.426Z,6.10
2018-02-16T14:18:04.888Z,6.60
2018-02-16T14:20:32.348Z,6.30
2018-02-16T14:22:59.842Z,6.17
2018-02-16T14:25:27.316Z,6.33
2018-02-16T14:27:54.780Z,6.20
2018-02-16T14:30:22.234Z,6.03
2018-02-16T14:32:49.689Z,5.47
2018-02-16T14:35:17.133Z,5.80
2018-02-16T14:37:44.596Z,5.83
2018-02-16T14:40:12.048Z,7.03
2018-02-16T14:42:39.520Z,6.33
2018-02-16T14:45:07.002Z,6.10
2018-02-16T14:47:34.436Z,6.27
2018-02-16T14:50:01.905Z,5.10
2018-02-16T14:52:29.369Z,5.40
2018-02-16T14:54:56.833Z,5.23
2018-02-16T14:57:24.292Z,6.20
2018-02-16T14:59:51.751Z,5.63
2018-02-16T15:02:19.211Z,5.43
2018-02-16T15:04:46.676Z,5.20
2018-02-16T15:07:14.135Z,5.60
2018-02-16T15:09:41.604Z,5.87
2018-02-16T15:12:09.057Z,5.03
2018-02-16T15:14:36.516Z,5.40
2018-02-16T15:17:04.013Z,4.53
2018-02-16T15:19:31.487Z,5.40
2018-02-16T15:21:58.935Z,4.70
2018-02-16T15:24:26.392Z,5.30
2018-02-16T15:26:54.675Z,5.27
2018-02-16T15:29:22.133Z,5.53
2018-02-16T15:31:49.587Z,5.00
2018-02-16T15:34:17.816Z,4.70
2018-02-16T15:36:45.274Z,5.67
2018-02-16T15:39:12.727Z,4.90
2018-02-16T15:41:40.184Z,5.07
2018-02-16T15:44:07.641Z,4.73
2018-02-16T15:46:35.101Z,6.07
2018-02-16T15:49:02.564Z,5.70
2018-02-16T15:51:30.020Z,5.80
2018-02-16T15:53:57.469Z,5.40
2018-02-16T15:56:24.927Z,5.73
2018-02-16T15:58:52.389Z,5.27
2018-02-16T16:01:19.857Z,5.33
2018-02-16T16:03:47.304Z,5.70
2018-02-16T16:06:14.778Z,6.60
2018-02-16T16:08:42.237Z,7.30
2018-02-16T16:11:09.707Z,10.37
2018-02-16T16:13:37.170Z,11.80
2018-02-16T16:16:04.635Z,7.97
2018-02-16T16:18:32.093Z,7.80
2018-02-16T16:20:59.556Z,7.50
2018-02-16T16:23:27.013Z,8.37
2018-02-16T16:25:54.490Z,6.87
2018-02-16T16:28:21.931Z,9.57
2018-02-16T16:30:49.398Z,7.07
2018-02-16T16:33:16.853Z,7.80
2018-02-16T16:35:44.313Z,11.67
2018-02-16T16:38:11.776Z,10.70
2018-02-16T16:40:39.238Z,8.40
2018-02-16T16:43:06.697Z,4.90
2018-02-16T16:45:34.160Z,5.70
2018-02-16T16:48:01.617Z,6.40
2018-02-16T16:50:29.141Z,12.90
2018-02-16T16:52:56.649Z,12.23
2018-02-16T16:55:24.193Z,9.60
2018-02-16T16:57:52.427Z,18.57
2018-02-16T17:00:19.897Z,15.53
2018-02-16T17:02:47.356Z,10.00
2018-02-16T17:05:14.835Z,7.57
2018-02-16T17:07:42.268Z,7.37
2018-02-16T17:10:09.728Z,10.80
2018-02-16T17:12:37.196Z,10.47
2018-02-16T17:15:04.648Z,7.10
2018-02-16T17:17:32.117Z,12.10
2018-02-16T17:19:59.580Z,9.67
2018-02-16T17:22:27.178Z,9.90
2018-02-16T17:24:54.624Z,9.73
2018-02-16T17:27:22.088Z,8.93
2018-02-16T17:29:51.052Z,10.20
2018-02-16T17:32:18.520Z,11.17
2018-02-16T17:34:45.978Z,10.77
2018-02-16T17:37:13.448Z,10.67
2018-02-16T17:39:40.916Z,9.23
2018-02-16T17:42:08.360Z,9.07
2018-02-16T17:44:35.825Z,7.10
2018-02-16T17:47:03.284Z,6.80
2018-02-16T17:49:30.744Z,7.93
2018-02-16T17:51:58.202Z,5.77
2018-02-16T17:54:25.663Z,7.20
2018-02-16T17:56:53.106Z,7.53
2018-02-16T17:59:21.359Z,11.77
2018-02-16T18:01:48.805Z,9.83
2018-02-16T18:04:16.246Z,9.00
2018-02-16T18:06:43.708Z,8.73
2018-02-16T18:09:11.174Z,10.20
2018-02-16T18:11:38.669Z,8.83
2018-02-16T18:14:06.125Z,7.93
2018-02-16T18:16:33.572Z,8.80
2018-02-16T18:19:01.037Z,9.83
2018-02-16T18:21:28.485Z,11.10
2018-02-16T18:23:55.960Z,10.47
2018-02-16T18:26:23.404Z,9.10
2018-02-16T18:28:50.878Z,8.27
2018-02-16T18:31:18.323Z,8.20
2018-02-16T18:33:45.790Z,10.50
2018-02-16T18:36:13.242Z,12.13
2018-02-16T18:38:40.708Z,16.93
2018-02-16T18:41:08.169Z,15.57
2018-02-16T18:43:35.640Z,15.07
2018-02-16T18:46:03.098Z,14.63
2018-02-16T18:48:30.573Z,14.00
2018-02-16T18:50:58.041Z,12.77
2018-02-16T18:53:25.508Z,11.83
2018-02-16T18:55:52.972Z,12.40
2018-02-16T18:58:20.440Z,12.20
2018-02-16T19:00:47.908Z,10.93
2018-02-16T19:03:15.374Z,11.37
2018-02-16T19:05:42.834Z,10.97
2018-02-16T19:08:10.335Z,10.40
2018-02-16T19:10:38.552Z,11.07
2018-02-16T19:13:06.002Z,10.80
2018-02-16T19:15:33.466Z,11.73
2018-02-16T19:18:00.904Z,11.40
2018-02-16T19:23:02.401Z,13.80
2018-02-16T19:25:29.877Z,13.07
2018-02-16T19:27:57.582Z,13.83
2018-02-16T19:30:25.190Z,12.97
2018-02-16T19:32:52.999Z,13.47
2018-02-16T19:35:21.464Z,13.93
2018-02-16T19:37:49.114Z,12.87
2018-02-16T19:40:16.592Z,12.53
2018-02-16T19:42:44.065Z,11.97
2018-02-16T19:45:11.540Z,11.50
2018-02-16T19:47:39.005Z,11.67
2018-02-16T19:50:06.650Z,11.77
2018-02-16T19:52:34.532Z,11.67
2018-02-16T19:55:03.024Z,10.93
2018-02-16T19:57:30.520Z,11.17
2018-02-16T19:59:59.174Z,11.67
2018-02-16T20:02:27.326Z,11.90
2018-02-16T20:04:54.892Z,11.13
2018-02-16T20:07:22.941Z,11.27
2018-02-16T20:09:51.265Z,11.97
2018-02-16T20:12:19.091Z,11.27
2018-02-16T20:14:46.604Z,11.17
2018-02-16T20:17:14.065Z,13.87
2018-02-16T20:19:41.544Z,17.73
2018-02-16T20:22:09.012Z,20.00
2018-02-16T20:24:36.462Z,18.30
2018-02-16T20:27:04.179Z,16.77
2018-02-16T20:29:32.525Z,13.23
2018-02-16T20:31:59.990Z,12.10
2018-02-16T20:34:27.734Z,11.40
2018-02-16T20:36:55.249Z,10.97
2018-02-16T20:39:23.465Z,10.47
2018-02-16T20:41:50.929Z,11.23
2018-02-16T20:44:18.386Z,14.37
2018-02-16T20:46:45.995Z,11.87
2018-02-16T20:49:14.253Z,11.47
2018-02-16T20:51:41.850Z,13.93
2018-02-16T20:54:10.085Z,17.90
2018-02-16T20:56:37.561Z,16.63
2018-02-16T20:59:05.009Z,16.43
2018-02-16T21:01:32.474Z,20.27
2018-02-16T21:03:59.928Z,16.03
2018-02-16T21:06:27.399Z,18.77
2018-02-16T21:08:54.848Z,17.30
2018-02-16T21:11:22.309Z,19.07
2018-02-16T21:13:49.756Z,17.80
2018-02-16T21:16:17.240Z,20.37
2018-02-16T21:18:44.697Z,19.50
2018-02-16T21:21:12.173Z,20.07
2018-02-16T21:23:39.621Z,16.37
2018-02-16T21:26:07.081Z,16.47
2018-02-16T21:28:34.540Z,14.43
2018-02-16T21:31:02.005Z,16.00
2018-02-16T21:33:29.469Z,15.17
2018-02-16T21:35:56.927Z,17.73
2018-02-16T21:38:24.392Z,17.53
2018-02-16T21:40:51.840Z,19.67
2018-02-16T21:43:19.304Z,19.87
2018-02-16T21:45:46.763Z,19.57
2018-02-16T21:48:15.040Z,20.07
2018-02-16T21:50:42.480Z,28.03
2018-02-16T21:53:09.940Z,21.90
2018-02-16T21:55:37.392Z,18.33
2018-02-16T21:58:04.857Z,16.43
2018-02-16T22:00:32.309Z,14.33
2018-02-16T22:03:00.549Z,17.17
2018-02-16T22:05:28.008Z,14.90
2018-02-16T22:07:55.461Z,13.93
2018-02-16T22:10:22.924Z,13.40
2018-02-16T22:12:50.400Z,14.87
2018-02-16T22:15:17.940Z,14.60
2018-02-16T22:17:45.428Z,15.43
2018-02-16T22:20:12.889Z,14.27
2018-02-16T22:22:40.354Z,15.60
2018-02-16T22:25:07.814Z,14.80
2018-02-16T22:27:35.280Z,15.47
2018-02-16T22:30:02.756Z,15.63
2018-02-16T22:32:30.226Z,14.03
2018-02-16T22:34:57.690Z,14.47
2018-02-16T22:37:25.911Z,15.63
2018-02-16T22:39:53.368Z,15.63
2018-02-16T22:42:20.816Z,15.00
2018-02-16T22:44:48.269Z,14.73
2018-02-16T22:47:15.716Z,14.33
2018-02-16T22:49:43.952Z,14.37
2018-02-16T22:52:12.176Z,15.17
2018-02-16T22:54:39.643Z,16.30
2018-02-16T22:57:07.098Z,16.67
2018-02-16T22:59:34.570Z,14.17
2018-02-16T23:02:02.025Z,15.00
2018-02-16T23:04:29.499Z,15.17
2018-02-16T23:06:56.961Z,14.07
2018-02-16T23:09:24.425Z,13.90
2018-02-16T23:11:51.880Z,13.53
2018-02-16T23:14:19.340Z,12.90
2018-02-16T23:16:46.804Z,12.93
2018-02-16T23:19:14.264Z,15.13
2018-02-16T23:21:41.718Z,14.07
2018-02-16T23:24:09.189Z,14.43
2018-02-16T23:26:36.653Z,14.90
2018-02-16T23:29:04.128Z,14.43
2018-02-16T23:31:31.582Z,12.37
2018-02-16T23:33:59.072Z,14.03
2018-02-16T23:36:26.521Z,13.13
2018-02-16T23:38:53.992Z,13.07
2018-02-16T23:41:21.437Z,12.77
2018-02-16T23:43:48.837Z,12.53
2018-02-16T23:46:16.314Z,14.20
2018-02-16T23:48:43.765Z,13.03
2018-02-16T23:51:11.226Z,11.50
2018-02-16T23:53:38.694Z,13.43
2018-02-16T23:56:06.150Z,14.00
2018-02-16T23:58:33.603Z,12.33
